createdAt,value
2023-09-10T00:01:11.627Z,21.84
2023-09-10T00:03:41.255Z,21.86
2023-09-10T00:06:09.698Z,21.87
2023-09-10T00:08:36.970Z,21.86
2023-09-10T00:11:06.302Z,21.86
2023-09-10T00:13:33.481Z,21.89
2023-09-10T00:16:00.342Z,21.89
2023-09-10T00:18:27.123Z,21.88
2023-09-10T00:24:29.846Z,21.88
2023-09-10T00:26:56.439Z,21.87
2023-09-10T00:29:23.057Z,21.85
2023-09-10T00:31:49.924Z,21.84
2023-09-10T00:34:16.594Z,21.81
2023-09-10T00:36:43.147Z,21.77
2023-09-10T00:39:10.255Z,21.78
2023-09-10T00:41:37.062Z,21.76
2023-09-10T00:44:04.167Z,21.70
2023-09-10T00:46:31.496Z,21.70
2023-09-10T00:48:59.933Z,21.77
2023-09-10T00:51:27.376Z,21.66
2023-09-10T00:53:54.369Z,21.64
2023-09-10T00:56:22.025Z,21.69
2023-09-10T00:58:49.202Z,21.69
2023-09-10T01:01:16.479Z,21.70
2023-09-10T01:03:43.794Z,21.70
2023-09-10T01:08:37.572Z,21.67
2023-09-10T01:11:25.993Z,21.65
2023-09-10T01:14:12.512Z,21.74
2023-09-10T01:17:06.425Z,21.78
2023-09-10T01:20:12.995Z,21.81
2023-09-10T01:23:20.603Z,21.75
2023-09-10T01:25:47.679Z,21.70
2023-09-10T01:28:14.296Z,21.60
2023-09-10T01:30:40.962Z,21.60
2023-09-10T01:33:10.178Z,21.57
2023-09-10T01:35:52.890Z,21.50
2023-09-10T01:38:48.505Z,21.42
2023-09-10T01:41:18.418Z,21.45
2023-09-10T01:43:46.203Z,21.49
2023-09-10T01:46:14.208Z,21.54
2023-09-10T01:48:41.697Z,21.47
2023-09-10T01:51:08.704Z,21.47
2023-09-10T01:53:35.267Z,21.40
2023-09-10T01:56:02.010Z,21.35
2023-09-10T01:58:28.659Z,21.34
2023-09-10T02:00:55.389Z,21.33
2023-09-10T02:03:22.145Z,21.34
2023-09-10T02:05:48.792Z,21.32
2023-09-10T02:08:16.191Z,21.30
2023-09-10T02:10:44.548Z,21.27
2023-09-10T02:13:11.144Z,21.26
2023-09-10T02:15:37.780Z,21.24
2023-09-10T02:18:04.751Z,21.20
2023-09-10T02:20:50.157Z,21.15
2023-09-10T02:23:22.986Z,21.20
2023-09-10T02:25:49.564Z,21.15
2023-09-10T02:28:16.226Z,21.13
2023-09-10T02:30:42.857Z,21.13
2023-09-10T02:33:10.680Z,21.11
2023-09-10T02:35:37.381Z,21.11
2023-09-10T02:38:04.188Z,21.11
2023-09-10T02:40:36.274Z,21.11
2023-09-10T02:43:02.905Z,21.08
2023-09-10T02:45:29.596Z,21.05
2023-09-10T02:47:56.208Z,21.04
2023-09-10T02:53:43.434Z,21.03
2023-09-10T02:56:10.288Z,20.96
2023-09-10T02:58:37.207Z,20.92
2023-09-10T03:01:07.309Z,20.94
2023-09-10T03:03:34.747Z,20.98
2023-09-10T03:06:01.898Z,20.93
2023-09-10T03:08:28.607Z,20.91
2023-09-10T03:10:55.301Z,20.88
2023-09-10T03:13:22.056Z,20.90
2023-09-10T03:15:49.701Z,20.89
2023-09-10T03:18:16.492Z,20.87
2023-09-10T03:20:43.227Z,20.85
2023-09-10T03:25:45.063Z,20.77
2023-09-10T03:28:11.991Z,20.72
2023-09-10T03:30:38.561Z,20.68
2023-09-10T03:33:05.452Z,20.61
2023-09-10T03:35:33.113Z,20.61
2023-09-10T03:38:37.391Z,20.65
2023-09-10T03:42:43.382Z,20.67
2023-09-10T03:45:10.430Z,20.64
2023-09-10T03:47:38.310Z,20.59
2023-09-10T03:50:06.094Z,20.61
2023-09-10T03:52:32.809Z,20.59
2023-09-10T03:55:23.586Z,20.63
2023-09-10T03:57:50.233Z,20.61
2023-09-10T04:00:16.875Z,20.56
2023-09-10T04:02:43.846Z,20.54
2023-09-10T04:05:12.869Z,20.55
2023-09-10T04:07:40.000Z,20.52
2023-09-10T04:10:08.119Z,20.51
2023-09-10T04:12:35.093Z,20.50
2023-09-10T04:15:01.685Z,20.47
2023-09-10T04:17:29.971Z,20.47
2023-09-10T04:20:57.252Z,20.44
2023-09-10T04:23:48.809Z,20.45
2023-09-10T04:26:15.691Z,20.39
2023-09-10T04:28:43.072Z,20.37
2023-09-10T04:31:14.978Z,20.37
2023-09-10T04:33:41.874Z,20.39
2023-09-10T04:36:08.494Z,20.42
2023-09-10T04:38:35.316Z,20.45
2023-09-10T04:41:02.065Z,20.47
2023-09-10T04:43:28.959Z,20.46
2023-09-10T04:45:55.725Z,20.48
2023-09-10T04:48:22.362Z,20.49
2023-09-10T04:50:48.958Z,20.48
2023-09-10T04:55:55.444Z,20.52
2023-09-10T04:58:22.320Z,20.54
2023-09-10T05:01:06.736Z,20.58
2023-09-10T05:07:02.587Z,20.63
2023-09-10T05:09:29.141Z,20.65
2023-09-10T05:11:58.628Z,20.68
2023-09-10T05:14:27.919Z,20.71
2023-09-10T05:16:54.586Z,20.80
2023-09-10T05:19:24.923Z,20.86
2023-09-10T05:21:51.594Z,20.90
2023-09-10T05:24:18.179Z,21.01
2023-09-10T05:26:44.743Z,21.11
2023-09-10T05:29:11.340Z,21.15
2023-09-10T05:31:38.417Z,21.23
2023-09-10T05:34:05.259Z,21.32
2023-09-10T05:36:31.844Z,21.43
2023-09-10T05:38:58.409Z,21.50
2023-09-10T05:41:24.978Z,21.57
2023-09-10T05:43:51.647Z,21.67
2023-09-10T05:46:18.705Z,21.83
2023-09-10T05:48:45.425Z,21.97
2023-09-10T05:51:12.016Z,22.07
2023-09-10T05:54:02.948Z,22.16
2023-09-10T05:56:45.295Z,22.30
2023-09-10T05:59:11.876Z,22.40
2023-09-10T06:01:38.531Z,22.48
2023-09-10T06:04:05.510Z,22.55
2023-09-10T06:06:32.189Z,22.68
2023-09-10T06:09:05.124Z,22.73
2023-09-10T06:11:31.787Z,22.92
2023-09-10T06:13:58.424Z,23.13
2023-09-10T06:16:25.160Z,23.23
2023-09-10T06:18:52.342Z,23.31
2023-09-10T06:21:19.233Z,23.49
2023-09-10T06:23:46.132Z,23.50
2023-09-10T06:26:14.180Z,23.63
2023-09-10T06:28:41.128Z,23.74
2023-09-10T06:31:09.259Z,23.84
2023-09-10T06:33:36.105Z,23.69
2023-09-10T06:36:03.202Z,23.93
2023-09-10T06:38:30.304Z,23.94
2023-09-10T06:40:57.175Z,24.03
2023-09-10T06:43:23.779Z,24.10
2023-09-10T06:45:52.403Z,24.12
2023-09-10T06:48:20.090Z,24.25
2023-09-10T06:50:46.966Z,24.34
2023-09-10T06:53:13.938Z,24.36
2023-09-10T06:55:40.813Z,24.41
2023-09-10T06:58:07.428Z,24.55
2023-09-10T07:00:35.079Z,24.62
2023-09-10T07:03:03.641Z,24.71
2023-09-10T07:05:30.424Z,24.74
2023-09-10T07:07:57.195Z,24.82
2023-09-10T07:10:23.811Z,24.70
2023-09-10T07:12:50.449Z,24.84
2023-09-10T07:15:17.135Z,24.87
2023-09-10T07:17:44.460Z,24.90
2023-09-10T07:20:12.327Z,25.01
2023-09-10T07:22:39.027Z,25.11
2023-09-10T07:25:06.585Z,25.12
2023-09-10T07:27:33.191Z,25.24
2023-09-10T07:29:59.733Z,25.28
2023-09-10T07:32:26.933Z,25.31
2023-09-10T07:34:53.580Z,25.31
2023-09-10T07:37:29.078Z,25.39
2023-09-10T07:39:55.669Z,25.48
2023-09-10T07:42:22.265Z,25.41
2023-09-10T07:44:48.802Z,25.49
2023-09-10T07:47:15.694Z,25.61
2023-09-10T07:50:00.752Z,25.75
2023-09-10T07:52:45.486Z,25.80
2023-09-10T07:55:12.093Z,25.96
2023-09-10T07:57:40.396Z,26.01
2023-09-10T08:00:09.601Z,26.13
2023-09-10T08:02:36.337Z,26.23
2023-09-10T08:05:04.119Z,26.19
2023-09-10T08:07:30.687Z,26.25
2023-09-10T08:09:57.242Z,26.40
2023-09-10T08:12:23.815Z,26.41
2023-09-10T08:14:50.418Z,26.53
2023-09-10T08:17:17.017Z,26.70
2023-09-10T08:19:43.642Z,26.71
2023-09-10T08:22:10.240Z,26.79
2023-09-10T08:24:36.802Z,26.78
2023-09-10T08:27:04.500Z,26.91
2023-09-10T08:29:31.290Z,26.92
2023-09-10T08:32:00.122Z,27.00
2023-09-10T08:34:27.137Z,27.01
2023-09-10T08:39:38.051Z,27.23
2023-09-10T08:42:11.140Z,27.25
2023-09-10T08:44:40.719Z,27.09
2023-09-10T08:47:09.509Z,27.26
2023-09-10T08:49:42.062Z,27.42
2023-09-10T08:59:04.570Z,27.76
2023-09-10T09:03:58.895Z,28.08
2023-09-10T09:06:30.084Z,28.09
2023-09-10T09:09:01.069Z,28.14
2023-09-10T09:11:30.684Z,28.13
2023-09-10T09:13:59.075Z,28.28
2023-09-10T09:16:26.187Z,28.42
2023-09-10T09:18:53.085Z,28.43
2023-09-10T09:21:22.645Z,28.51
2023-09-10T09:24:04.954Z,28.65
2023-09-10T09:26:34.686Z,28.76
2023-09-10T09:29:01.600Z,28.80
2023-09-10T09:31:28.224Z,28.80
2023-09-10T09:33:54.897Z,28.85
2023-09-10T09:36:28.581Z,29.00
2023-09-10T09:47:53.596Z,29.27
2023-09-10T09:50:26.449Z,29.23
2023-09-10T09:52:54.313Z,29.38
2023-09-10T09:55:21.122Z,29.45
2023-09-10T09:57:49.130Z,29.62
2023-09-10T10:00:16.407Z,29.70
2023-09-10T10:02:44.010Z,29.76
2023-09-10T10:05:27.064Z,29.80
2023-09-10T10:07:53.817Z,29.83
2023-09-10T10:10:20.906Z,29.75
2023-09-10T10:12:48.639Z,29.92
2023-09-10T10:15:17.345Z,29.92
2023-09-10T10:17:46.207Z,30.02
2023-09-10T10:20:14.808Z,30.16
2023-09-10T10:22:42.727Z,30.25
2023-09-10T10:25:09.955Z,30.27
2023-09-10T10:27:36.728Z,30.23
2023-09-10T10:30:04.983Z,30.31
2023-09-10T10:32:45.013Z,30.16
2023-09-10T10:35:12.813Z,30.26
2023-09-10T10:38:04.205Z,30.33
2023-09-10T10:40:43.250Z,30.32
2023-09-10T10:43:18.991Z,30.51
2023-09-10T10:45:53.082Z,30.52
2023-09-10T10:48:21.444Z,30.51
2023-09-10T10:50:50.087Z,30.49
2023-09-10T10:53:21.420Z,30.72
2023-09-10T10:55:57.739Z,30.80
2023-09-10T10:58:29.514Z,30.90
2023-09-10T11:00:58.760Z,30.75
2023-09-10T11:03:26.008Z,30.86
2023-09-10T11:05:55.886Z,30.85
2023-09-10T11:08:30.220Z,30.98
2023-09-10T11:11:35.772Z,31.08
2023-09-10T11:14:04.476Z,30.91
2023-09-10T11:16:35.124Z,30.88
2023-09-10T11:19:03.249Z,31.11
2023-09-10T11:21:44.659Z,31.18
2023-09-10T11:24:13.978Z,30.83
2023-09-10T11:26:40.582Z,31.01
2023-09-10T11:29:07.291Z,31.13
2023-09-10T11:31:40.192Z,31.24
2023-09-10T11:34:21.830Z,31.29
2023-09-10T11:36:50.373Z,31.35
2023-09-10T11:39:19.118Z,31.40
2023-09-10T11:41:55.282Z,31.39
2023-09-10T11:44:21.869Z,31.35
2023-09-10T11:46:50.241Z,31.30
2023-09-10T11:49:16.996Z,31.24
2023-09-10T11:51:45.715Z,31.41
2023-09-10T11:54:22.417Z,31.43
2023-09-10T11:56:52.622Z,31.46
2023-09-10T11:59:27.396Z,31.59
2023-09-10T12:01:55.608Z,31.49
2023-09-10T12:04:34.790Z,31.57
2023-09-10T12:07:07.648Z,31.76
2023-09-10T12:09:34.480Z,31.93
2023-09-10T12:12:25.224Z,32.03
2023-09-10T12:14:52.270Z,32.09
2023-09-10T12:17:19.340Z,31.99
2023-09-10T12:19:46.893Z,32.07
2023-09-10T12:22:19.151Z,31.92
2023-09-10T12:24:46.815Z,32.03
2023-09-10T12:27:14.714Z,31.94
2023-09-10T12:29:42.347Z,31.89
2023-09-10T12:32:09.743Z,31.88
2023-09-10T12:34:37.404Z,31.81
2023-09-10T12:37:04.347Z,32.03
2023-09-10T12:39:31.220Z,32.20
2023-09-10T12:42:05.166Z,32.28
2023-09-10T12:44:35.075Z,32.35
2023-09-10T12:47:04.728Z,32.34
2023-09-10T12:49:31.490Z,32.16
2023-09-10T12:51:58.160Z,32.32
2023-09-10T12:54:24.985Z,32.33
2023-09-10T12:57:16.119Z,32.36
2023-09-10T12:59:42.811Z,32.32
2023-09-10T13:02:11.896Z,32.30
2023-09-10T13:04:38.683Z,32.37
2023-09-10T13:07:07.793Z,32.36
2023-09-10T13:09:35.434Z,32.31
2023-09-10T13:12:02.072Z,32.26
2023-09-10T13:14:29.252Z,32.22
2023-09-10T13:16:58.364Z,32.27
2023-09-10T13:19:25.145Z,32.36
2023-09-10T13:21:51.733Z,32.28
2023-09-10T13:24:18.285Z,32.19
2023-09-10T13:26:44.848Z,32.23
2023-09-10T13:29:11.432Z,32.12
2023-09-10T13:31:38.225Z,32.21
2023-09-10T13:34:06.319Z,32.23
2023-09-10T13:36:32.931Z,32.22
2023-09-10T13:38:59.552Z,32.28
2023-09-10T13:41:26.666Z,32.24
2023-09-10T13:43:55.520Z,32.11
2023-09-10T13:46:22.145Z,31.91
2023-09-10T13:48:49.283Z,32.05
2023-09-10T13:51:15.919Z,31.87
2023-09-10T13:53:45.095Z,31.89
2023-09-10T13:56:12.605Z,31.95
2023-09-10T13:58:39.375Z,31.83
2023-09-10T14:01:08.716Z,31.89
2023-09-10T14:03:35.890Z,31.85
2023-09-10T14:06:03.709Z,31.71
2023-09-10T14:08:30.484Z,31.76
2023-09-10T14:10:57.098Z,31.67
2023-09-10T14:13:23.704Z,31.55
2023-09-10T14:15:50.294Z,31.57
2023-09-10T14:18:17.000Z,31.53
2023-09-10T14:20:45.519Z,31.46
2023-09-10T14:23:12.263Z,31.52
2023-09-10T14:25:38.899Z,31.52
2023-09-10T14:28:05.666Z,31.51
2023-09-10T14:30:32.266Z,31.53
2023-09-10T14:32:58.910Z,31.46
2023-09-10T14:35:25.596Z,31.49
2023-09-10T14:37:52.248Z,31.49
2023-09-10T14:40:19.074Z,31.46
2023-09-10T14:42:45.772Z,31.37
2023-09-10T14:45:15.190Z,31.38
2023-09-10T14:47:42.055Z,31.41
2023-09-10T14:50:14.006Z,31.44
2023-09-10T14:52:44.940Z,31.37
2023-09-10T14:55:12.580Z,31.27
2023-09-10T14:57:39.810Z,31.16
2023-09-10T15:00:07.301Z,31.25
2023-09-10T15:02:34.516Z,31.18
2023-09-10T15:05:02.186Z,31.14
2023-09-10T15:07:28.773Z,31.18
2023-09-10T15:09:55.464Z,31.03
2023-09-10T15:12:22.058Z,31.12
2023-09-10T15:14:49.640Z,31.12
2023-09-10T15:17:16.429Z,31.11
2023-09-10T15:19:43.070Z,31.06
2023-09-10T15:22:09.644Z,31.04
2023-09-10T15:24:37.349Z,30.96
2023-09-10T15:27:04.664Z,30.94
2023-09-10T15:29:31.435Z,30.88
2023-09-10T15:31:58.844Z,30.90
2023-09-10T15:34:25.454Z,30.79
2023-09-10T15:36:52.097Z,30.75
2023-09-10T15:39:21.193Z,30.78
2023-09-10T15:41:49.748Z,30.79
2023-09-10T15:44:17.166Z,30.68
2023-09-10T15:46:43.964Z,30.66
2023-09-10T15:49:10.651Z,30.67
2023-09-10T15:51:37.300Z,30.64
2023-09-10T15:54:04.305Z,30.64
2023-09-10T15:56:30.983Z,30.59
2023-09-10T15:58:57.682Z,30.55
2023-09-10T16:01:24.345Z,30.47
2023-09-10T16:03:51.094Z,30.43
2023-09-10T16:06:17.928Z,30.41
2023-09-10T16:08:44.558Z,30.38
2023-09-10T16:11:13.805Z,30.35
2023-09-10T16:13:41.871Z,30.33
2023-09-10T16:16:08.693Z,30.30
2023-09-10T16:18:35.573Z,30.26
2023-09-10T16:21:02.298Z,30.23
2023-09-10T16:23:34.257Z,30.16
2023-09-10T16:26:01.793Z,30.10
2023-09-10T16:28:28.498Z,30.05
2023-09-10T16:30:55.183Z,29.97
2023-09-10T16:33:21.882Z,29.85
2023-09-10T16:35:48.678Z,29.81
2023-09-10T16:38:15.551Z,29.72
2023-09-10T16:40:42.227Z,29.66
2023-09-10T16:43:08.851Z,29.60
2023-09-10T16:45:35.433Z,29.53
2023-09-10T16:48:02.144Z,29.46
2023-09-10T16:50:28.859Z,29.39
2023-09-10T16:52:55.554Z,29.28
2023-09-10T16:55:22.208Z,29.21
2023-09-10T16:57:48.942Z,29.13
2023-09-10T17:00:18.926Z,29.02
2023-09-10T17:02:45.665Z,28.94
2023-09-10T17:05:12.469Z,28.80
2023-09-10T17:07:42.714Z,28.73
2023-09-10T17:10:09.809Z,28.62
2023-09-10T17:12:36.489Z,28.52
2023-09-10T17:15:03.515Z,28.41
2023-09-10T17:17:36.120Z,28.29
2023-09-10T17:20:02.811Z,28.22
2023-09-10T17:22:30.034Z,28.12
2023-09-10T17:24:56.896Z,28.02
2023-09-10T17:27:23.539Z,27.92
2023-09-10T17:29:51.227Z,27.81
2023-09-10T17:32:18.868Z,27.70
2023-09-10T17:34:45.538Z,27.61
2023-09-10T17:37:12.180Z,27.51
2023-09-10T17:39:39.828Z,27.45
2023-09-10T17:42:06.455Z,27.36
2023-09-10T17:44:34.839Z,27.26
2023-09-10T17:47:06.206Z,27.18
2023-09-10T17:49:35.305Z,27.10
2023-09-10T17:52:02.025Z,27.04
2023-09-10T17:54:28.630Z,26.94
2023-09-10T17:56:55.276Z,26.82
2023-09-10T17:59:22.074Z,26.75
2023-09-10T18:01:49.040Z,26.67
2023-09-10T18:04:16.027Z,26.58
2023-09-10T18:06:42.685Z,26.55
2023-09-10T18:09:09.380Z,26.45
2023-09-10T18:11:38.575Z,26.39
2023-09-10T18:14:05.333Z,26.30
2023-09-10T18:16:31.992Z,26.24
2023-09-10T18:19:00.583Z,26.17
2023-09-10T18:21:27.334Z,26.13
2023-09-10T18:23:54.034Z,26.09
2023-09-10T18:26:22.858Z,26.00
2023-09-10T18:28:49.426Z,25.94
2023-09-10T18:31:16.008Z,25.85
2023-09-10T18:33:42.962Z,25.79
2023-09-10T18:36:09.774Z,25.76
2023-09-10T18:38:51.036Z,25.70
2023-09-10T18:41:17.681Z,25.60
2023-09-10T18:43:44.317Z,25.52
2023-09-10T18:46:11.003Z,25.47
2023-09-10T18:48:37.901Z,25.42
2023-09-10T18:51:04.600Z,25.36
2023-09-10T18:53:32.458Z,25.35
2023-09-10T18:55:59.323Z,25.25
2023-09-10T18:58:25.957Z,25.20
2023-09-10T19:00:53.377Z,25.12
2023-09-10T19:03:20.540Z,25.08
2023-09-10T19:05:50.821Z,25.03
2023-09-10T19:08:17.406Z,24.99
2023-09-10T19:10:44.028Z,24.96
2023-09-10T19:13:10.613Z,24.94
2023-09-10T19:15:40.597Z,24.86
2023-09-10T19:18:07.350Z,24.82
2023-09-10T19:20:34.039Z,24.79
2023-09-10T19:23:01.964Z,24.73
2023-09-10T19:25:28.608Z,24.67
2023-09-10T19:27:55.250Z,24.64
2023-09-10T19:30:21.850Z,24.60
2023-09-10T19:32:48.636Z,24.53
2023-09-10T19:35:17.532Z,24.54
2023-09-10T19:37:44.300Z,24.49
2023-09-10T19:40:11.141Z,24.44
2023-09-10T19:42:37.992Z,24.37
2023-09-10T19:45:04.907Z,24.36
2023-09-10T19:47:31.616Z,24.32
2023-09-10T19:49:58.218Z,24.30
2023-09-10T19:52:24.837Z,24.29
2023-09-10T19:55:03.423Z,24.23
2023-09-10T19:57:36.037Z,24.21
2023-09-10T20:00:03.307Z,24.14
2023-09-10T20:02:30.047Z,24.12
2023-09-10T20:04:56.807Z,24.08
2023-09-10T20:07:23.519Z,24.06
2023-09-10T20:09:50.118Z,23.99
2023-09-10T20:12:38.295Z,23.96
2023-09-10T20:15:06.712Z,23.97
2023-09-10T20:17:34.059Z,23.90
2023-09-10T20:20:00.836Z,23.87
2023-09-10T20:22:27.441Z,23.89
2023-09-10T20:24:54.539Z,23.85
2023-09-10T20:27:21.206Z,23.84
2023-09-10T20:29:47.898Z,23.80
2023-09-10T20:32:14.571Z,23.76
2023-09-10T20:34:41.231Z,23.73
2023-09-10T20:37:07.837Z,23.72
2023-09-10T20:39:34.387Z,23.71
2023-09-10T20:42:01.706Z,23.66
2023-09-10T20:44:28.600Z,23.64
2023-09-10T20:46:55.253Z,23.61
2023-09-10T20:49:21.945Z,23.61
2023-09-10T20:51:51.060Z,23.58
2023-09-10T20:54:17.642Z,23.59
2023-09-10T20:56:44.278Z,23.56
2023-09-10T20:59:10.882Z,23.54
2023-09-10T21:01:37.542Z,23.50
2023-09-10T21:04:04.397Z,23.47
2023-09-10T21:06:31.298Z,23.46
2023-09-10T21:08:58.079Z,23.44
2023-09-10T21:11:24.755Z,23.42
2023-09-10T21:13:51.783Z,23.44
2023-09-10T21:16:18.538Z,23.40
2023-09-10T21:18:46.546Z,23.36
2023-09-10T21:21:14.050Z,23.31
2023-09-10T21:23:40.808Z,23.28
2023-09-10T21:26:08.634Z,23.28
2023-09-10T21:28:35.251Z,23.26
2023-09-10T21:31:01.847Z,23.29
2023-09-10T21:33:28.511Z,23.22
2023-09-10T21:35:55.331Z,23.20
2023-09-10T21:38:22.082Z,23.16
2023-09-10T21:40:48.667Z,23.11
2023-09-10T21:43:15.373Z,23.11
2023-09-10T21:45:43.172Z,23.08
2023-09-10T21:48:10.974Z,23.03
2023-09-10T21:50:38.080Z,23.01
2023-09-10T21:53:05.522Z,23.00
2023-09-10T21:55:32.164Z,22.93
2023-09-10T21:57:58.936Z,22.90
2023-09-10T22:00:25.607Z,22.88
2023-09-10T22:02:52.292Z,22.88
2023-09-10T22:05:19.218Z,22.84
2023-09-10T22:07:45.873Z,22.83
2023-09-10T22:10:12.485Z,22.79
2023-09-10T22:12:39.064Z,22.75
2023-09-10T22:15:09.872Z,22.69
2023-09-10T22:17:39.468Z,22.68
2023-09-10T22:20:12.370Z,22.64
2023-09-10T22:22:40.180Z,22.59
2023-09-10T22:25:06.925Z,22.56
2023-09-10T22:27:33.667Z,22.56
2023-09-10T22:30:00.405Z,22.53
2023-09-10T22:32:27.079Z,22.51
2023-09-10T22:34:53.805Z,22.47
2023-09-10T22:37:20.365Z,22.43
2023-09-10T22:39:48.119Z,22.43
2023-09-10T22:42:15.108Z,22.41
2023-09-10T22:44:41.745Z,22.34
2023-09-10T22:47:08.385Z,22.32
2023-09-10T22:49:36.057Z,22.35
2023-09-10T22:52:02.656Z,22.34
2023-09-10T22:54:29.542Z,22.31
2023-09-10T22:56:56.124Z,22.29
2023-09-10T22:59:22.718Z,22.30
2023-09-10T23:01:50.119Z,22.32
2023-09-10T23:04:18.184Z,22.29
2023-09-10T23:06:46.626Z,22.19
2023-09-10T23:09:13.440Z,22.16
2023-09-10T23:11:40.314Z,22.17
2023-09-10T23:14:07.219Z,22.19
2023-09-10T23:16:35.209Z,22.17
2023-09-10T23:19:03.712Z,22.19
2023-09-10T23:21:30.529Z,22.20
2023-09-10T23:23:57.231Z,22.21
2023-09-10T23:26:24.034Z,22.19
2023-09-10T23:28:50.725Z,22.17
2023-09-10T23:31:17.380Z,22.14
2023-09-10T23:33:44.439Z,22.13
2023-09-10T23:36:11.110Z,22.13
2023-09-10T23:38:37.836Z,22.15
2023-09-10T23:41:07.594Z,22.11
2023-09-10T23:43:36.506Z,22.12
2023-09-10T23:46:03.899Z,22.12
2023-09-10T23:48:30.523Z,22.09
2023-09-10T23:50:57.678Z,22.05
2023-09-10T23:53:24.351Z,22.03
2023-09-10T23:55:50.933Z,22.00
2023-09-10T23:58:17.534Z,22.01
